Time;durP1;ratioP1;P1;durP2;ratioP2;P2;SDS_P1;SDS_P2;PMS_P1;PMS_P2;Temp;Humidity;BMP_temperature;BMP_pressure;BME280_temperature;BME280_humidity;BME280_pressure;Samples;Min_cycle;Max_cycle;Signal;HPM_P1;HPM_P2
2022/08/28 00:01:26;;;;;;;5.23;2.23;;;14.90;99.90;;;;;;5072820;28;20382;-79
2022/08/28 00:03:53;;;;;;;2.47;1.70;;;14.80;99.90;;;;;;5073483;28;20216;-81
2022/08/28 00:06:21;;;;;;;4.63;2.27;;;14.80;99.90;;;;;;5073024;28;20202;-80
2022/08/28 00:08:49;;;;;;;3.50;1.83;;;14.80;99.90;;;;;;5071745;28;20327;-80
2022/08/28 00:11:16;;;;;;;3.63;2.27;;;14.80;99.90;;;;;;5072610;28;20597;-80
2022/08/28 00:13:43;;;;;;;5.57;2.10;;;14.80;99.90;;;;;;5072773;28;20601;-80
2022/08/28 00:16:10;;;;;;;5.10;2.67;;;14.70;99.90;;;;;;5072106;28;20213;-78
2022/08/28 00:18:37;;;;;;;3.57;1.90;;;14.70;99.90;;;;;;5072809;28;20188;-79
2022/08/28 00:21:04;;;;;;;4.07;2.10;;;14.70;99.90;;;;;;5072675;28;20292;-79
2022/08/28 00:23:32;;;;;;;3.10;1.83;;;14.70;99.90;;;;;;5072184;28;20197;-80
2022/08/28 00:26:00;;;;;;;3.20;2.03;;;14.60;99.90;;;;;;5072527;28;20201;-79
2022/08/28 00:28:26;;;;;;;4.73;2.10;;;14.70;99.90;;;;;;5073018;28;20674;-78
2022/08/28 00:30:56;;;;;;;3.27;1.93;;;14.60;99.90;;;;;;5072050;28;20201;-79
2022/08/28 00:33:26;;;;;;;6.03;2.30;;;14.60;99.90;;;;;;5071911;28;20285;-80
2022/08/28 00:35:54;;;;;;;4.43;2.27;;;14.60;99.90;;;;;;5071989;28;20189;-81
2022/08/28 00:38:24;;;;;;;4.33;2.20;;;14.50;99.90;;;;;;5071686;28;20204;-79
2022/08/28 00:40:54;;;;;;;3.00;1.90;;;14.50;99.90;;;;;;5072459;28;20190;-79
2022/08/28 00:43:34;;;;;;;3.97;1.90;;;14.50;99.90;;;;;;5071427;28;20462;-80
2022/08/28 00:46:03;;;;;;;3.90;1.97;;;14.50;99.90;;;;;;5072150;28;20457;-80
2022/08/28 00:48:30;;;;;;;3.73;1.90;;;14.50;99.90;;;;;;5072476;28;20193;-80
2022/08/28 00:53:43;;;;;;;3.57;2.23;;;14.50;99.90;;;;;;5072630;28;20177;-80
2022/08/28 00:56:12;;;;;;;3.70;1.80;;;14.40;99.90;;;;;;5072090;28;20240;-80
2022/08/28 00:58:43;;;;;;;4.07;1.93;;;14.40;99.90;;;;;;5072038;28;20212;-80
2022/08/28 01:01:10;;;;;;;3.23;2.10;;;14.50;99.90;;;;;;5072531;28;20212;-79
2022/08/28 01:03:37;;;;;;;3.00;2.03;;;14.40;99.90;;;;;;5072469;28;20683;-79
2022/08/28 01:06:05;;;;;;;4.60;2.00;;;14.40;99.90;;;;;;5071634;28;20225;-79
2022/08/28 01:08:33;;;;;;;3.73;1.73;;;14.40;99.90;;;;;;5072254;28;20282;-78
2022/08/28 01:11:03;;;;;;;3.73;1.90;;;14.40;99.90;;;;;;5072016;28;20201;-78
2022/08/28 01:13:31;;;;;;;4.43;2.00;;;14.40;99.90;;;;;;5071907;28;20597;-80
2022/08/28 01:16:02;;;;;;;2.60;1.83;;;14.40;99.90;;;;;;5071968;28;20204;-79
2022/08/28 01:18:29;;;;;;;3.73;2.00;;;14.40;99.90;;;;;;5070443;28;20259;-78
2022/08/28 01:21:01;;;;;;;4.60;1.93;;;14.40;99.90;;;;;;5091725;28;20209;-79
2022/08/28 01:24:00;;;;;;;5.33;2.30;;;14.30;99.90;;;;;;5090662;28;20203;-79
2022/08/28 01:26:29;;;;;;;3.60;2.00;;;14.30;99.90;;;;;;5034612;28;20212;-80
2022/08/28 01:28:57;;;;;;;3.73;2.10;;;14.30;99.90;;;;;;5072061;28;20181;-78
2022/08/28 01:31:24;;;;;;;2.80;1.90;;;14.20;99.90;;;;;;5072160;28;20217;-80
2022/08/28 01:33:52;;;;;;;4.73;1.90;;;14.20;99.90;;;;;;5070768;28;20213;-79
2022/08/28 01:36:19;;;;;;;3.43;1.87;;;14.20;99.90;;;;;;5071979;28;20211;-79
2022/08/28 01:38:49;;;;;;;2.33;1.53;;;14.10;99.90;;;;;;5071592;28;20655;-78
2022/08/28 01:41:16;;;;;;;3.63;1.83;;;14.10;99.90;;;;;;5071216;28;20208;-78
2022/08/28 01:43:44;;;;;;;3.23;1.77;;;14.10;99.90;;;;;;5071735;28;20205;-79
2022/08/28 01:46:12;;;;;;;5.87;2.27;;;14.10;99.90;;;;;;5072079;28;20225;-78
2022/08/28 01:48:42;;;;;;;5.17;2.10;;;14.10;99.90;;;;;;5076266;28;20597;-78
2022/08/28 01:51:10;;;;;;;4.77;2.17;;;14.10;99.90;;;;;;5074716;28;20210;-78
2022/08/28 01:53:38;;;;;;;4.47;2.37;;;14.10;99.90;;;;;;5071698;28;20209;-78
2022/08/28 01:56:08;;;;;;;2.67;1.87;;;14.10;99.90;;;;;;5074236;28;20211;-79
2022/08/28 01:58:35;;;;;;;4.60;2.00;;;14.10;99.90;;;;;;5076227;28;20215;-79
2022/08/28 02:01:03;;;;;;;4.20;2.20;;;14.10;99.90;;;;;;5083057;28;20204;-79
2022/08/28 02:03:32;;;;;;;4.97;2.00;;;14.10;99.90;;;;;;5081490;28;20213;-79
2022/08/28 02:05:59;;;;;;;4.23;1.97;;;14.10;99.90;;;;;;5075443;28;20304;-79
2022/08/28 02:08:25;;;;;;;3.70;2.10;;;14.00;99.90;;;;;;5075270;28;20795;-79
2022/08/28 02:10:52;;;;;;;5.57;2.03;;;14.10;99.90;;;;;;5094609;28;20593;-79
2022/08/28 02:13:19;;;;;;;6.43;2.17;;;14.10;99.90;;;;;;5093263;28;20295;-78
2022/08/28 02:15:47;;;;;;;3.00;1.80;;;14.00;99.90;;;;;;5094743;28;20604;-79
2022/08/28 02:18:16;;;;;;;3.67;1.90;;;14.10;99.90;;;;;;5084512;28;20297;-80
2022/08/28 02:20:43;;;;;;;3.53;1.70;;;14.00;99.90;;;;;;5084661;28;20227;-80
2022/08/28 02:23:10;;;;;;;5.13;2.10;;;14.00;99.90;;;;;;5080655;28;20216;-79
2022/08/28 02:25:38;;;;;;;4.87;1.97;;;14.00;99.90;;;;;;5074812;28;20228;-79
2022/08/28 02:28:05;;;;;;;2.97;1.70;;;14.00;99.90;;;;;;5074755;28;20208;-79
2022/08/28 02:30:32;;;;;;;2.70;1.87;;;14.00;99.90;;;;;;5074414;28;20197;-77
2022/08/28 02:32:59;;;;;;;4.03;2.17;;;14.00;99.90;;;;;;5074566;28;20220;-77
2022/08/28 02:35:27;;;;;;;5.20;2.10;;;14.00;99.90;;;;;;5074986;28;20490;-78
2022/08/28 02:37:54;;;;;;;1.63;1.50;;;14.00;99.90;;;;;;5073886;28;20201;-77
2022/08/28 02:40:23;;;;;;;4.27;2.00;;;14.00;99.90;;;;;;5074520;28;20197;-79
2022/08/28 02:42:50;;;;;;;5.73;2.20;;;14.00;99.90;;;;;;5073669;28;20679;-77
2022/08/28 02:45:19;;;;;;;4.87;2.50;;;14.10;99.90;;;;;;5074382;28;20229;-78
2022/08/28 02:47:46;;;;;;;4.00;2.13;;;14.10;99.90;;;;;;5074529;28;20198;-77
2022/08/28 02:50:16;;;;;;;4.60;1.73;;;14.10;99.90;;;;;;5073999;28;20208;-79
2022/08/28 02:52:45;;;;;;;2.70;1.60;;;14.10;99.90;;;;;;5074203;28;20798;-78
2022/08/28 02:55:14;;;;;;;6.13;2.67;;;14.10;99.90;;;;;;5073953;28;20185;-80
2022/08/28 02:57:42;;;;;;;4.53;2.13;;;14.10;99.90;;;;;;5073495;28;20198;-79
2022/08/28 03:00:13;;;;;;;4.30;2.10;;;14.20;99.90;;;;;;5073873;28;20205;-80
2022/08/28 03:02:40;;;;;;;4.47;2.23;;;14.10;99.90;;;;;;5074077;28;20284;-80
2022/08/28 03:05:08;;;;;;;3.93;2.00;;;14.20;99.90;;;;;;5073326;28;20240;-78
2022/08/28 03:07:35;;;;;;;5.27;2.13;;;14.10;99.90;;;;;;5073312;28;20204;-79
2022/08/28 03:10:05;;;;;;;2.73;1.93;;;14.10;99.90;;;;;;5073442;28;20450;-79
2022/08/28 03:12:32;;;;;;;3.80;2.43;;;14.20;99.90;;;;;;5073833;28;20189;-77
2022/08/28 03:14:59;;;;;;;3.00;1.83;;;14.10;99.90;;;;;;5074259;28;20225;-78
2022/08/28 03:17:27;;;;;;;3.87;1.80;;;14.10;99.90;;;;;;5074690;28;20293;-78
2022/08/28 03:19:53;;;;;;;2.27;1.70;;;14.10;99.90;;;;;;5073164;28;20280;-78
2022/08/28 03:23:24;;;;;;;2.67;2.10;;;14.10;99.90;;;;;;5073751;28;20593;-79
2022/08/28 03:25:10;;;;;;;4.23;1.93;;;14.10;99.90;;;;;;5072857;28;20220;-79
2022/08/28 03:27:37;;;;;;;5.43;3.23;;;14.10;99.90;;;;;;5073918;28;20213;-81
2022/08/28 03:30:05;;;;;;;3.80;2.10;;;14.10;99.90;;;;;;5074238;28;20193;-79
2022/08/28 03:32:32;;;;;;;2.90;1.80;;;14.10;99.90;;;;;;5073415;28;20217;-78
2022/08/28 03:35:00;;;;;;;4.77;2.00;;;14.10;99.90;;;;;;5073509;28;20247;-79
2022/08/28 03:37:27;;;;;;;2.43;1.87;;;14.10;99.90;;;;;;5073731;28;20620;-79
2022/08/28 03:39:53;;;;;;;3.80;1.90;;;14.10;99.90;;;;;;5074365;28;20200;-78
2022/08/28 03:42:22;;;;;;;2.70;1.60;;;14.00;99.90;;;;;;5074479;28;20289;-77
2022/08/28 03:44:49;;;;;;;1.90;1.50;;;14.00;99.90;;;;;;5074286;28;20232;-77
2022/08/28 03:47:15;;;;;;;2.70;1.80;;;14.00;99.90;;;;;;5073677;28;20194;-78
2022/08/28 03:49:44;;;;;;;3.53;2.30;;;14.00;99.90;;;;;;5074103;28;20201;-79
2022/08/28 03:52:11;;;;;;;2.27;1.87;;;14.00;99.90;;;;;;5073402;28;20201;-77
2022/08/28 03:54:38;;;;;;;4.03;2.30;;;14.00;99.90;;;;;;5072967;28;20205;-78
2022/08/28 03:57:05;;;;;;;3.20;1.77;;;13.90;99.90;;;;;;5072723;28;20201;-77
2022/08/28 03:59:33;;;;;;;4.00;2.17;;;13.90;99.90;;;;;;5073315;28;20499;-78
2022/08/28 04:02:00;;;;;;;2.97;1.70;;;13.90;99.90;;;;;;5072300;28;20217;-79
2022/08/28 04:04:27;;;;;;;3.97;1.80;;;13.90;99.90;;;;;;5073352;28;20601;-77
2022/08/28 04:06:53;;;;;;;3.50;1.87;;;13.90;99.90;;;;;;5073251;28;20315;-79
2022/08/28 04:09:20;;;;;;;3.87;1.93;;;13.90;99.90;;;;;;5072263;28;20237;-79
2022/08/28 04:11:47;;;;;;;2.57;1.70;;;13.80;99.90;;;;;;5072692;28;20229;-78
2022/08/28 04:14:14;;;;;;;2.60;1.70;;;13.80;99.90;;;;;;5072187;28;20559;-78
2022/08/28 04:16:43;;;;;;;2.90;1.90;;;13.80;99.90;;;;;;5073134;28;20201;-77
2022/08/28 04:19:09;;;;;;;3.67;2.10;;;13.80;99.90;;;;;;5071175;28;20288;-77
2022/08/28 04:21:38;;;;;;;3.57;1.80;;;13.80;99.90;;;;;;5072068;28;20200;-78
2022/08/28 04:24:05;;;;;;;3.77;2.00;;;13.80;99.90;;;;;;5072463;28;20682;-77
2022/08/28 04:26:35;;;;;;;3.30;1.67;;;13.80;99.90;;;;;;5072513;28;20232;-79
2022/08/28 04:29:03;;;;;;;1.83;1.73;;;13.80;99.90;;;;;;5073587;28;20216;-79
2022/08/28 04:31:30;;;;;;;2.50;1.60;;;13.70;99.90;;;;;;5072321;28;20294;-79
2022/08/28 04:33:58;;;;;;;4.03;1.93;;;13.70;99.90;;;;;;5072455;28;20225;-79
2022/08/28 04:36:25;;;;;;;4.53;1.80;;;13.80;99.90;;;;;;5071844;28;20227;-78
2022/08/28 04:38:52;;;;;;;4.17;2.20;;;13.70;99.90;;;;;;5072390;28;20197;-77
2022/08/28 04:41:19;;;;;;;3.83;2.20;;;13.70;99.90;;;;;;5072414;28;20201;-79
2022/08/28 04:43:46;;;;;;;3.20;2.03;;;13.80;99.90;;;;;;5071447;28;20624;-77
2022/08/28 04:46:14;;;;;;;3.67;2.00;;;13.80;99.90;;;;;;5072488;28;20217;-78
2022/08/28 04:48:42;;;;;;;3.50;1.60;;;13.80;99.90;;;;;;5072707;28;20209;-78
2022/08/28 04:51:13;;;;;;;4.60;1.90;;;13.80;99.90;;;;;;5071531;28;20363;-77
2022/08/28 04:53:40;;;;;;;1.93;1.60;;;13.80;99.90;;;;;;5072062;28;20232;-78
2022/08/28 04:56:10;;;;;;;4.00;1.80;;;13.80;99.90;;;;;;5071514;28;20223;-78
2022/08/28 04:58:38;;;;;;;4.00;2.23;;;13.80;99.90;;;;;;5071769;28;20509;-78
2022/08/28 05:01:07;;;;;;;3.63;1.80;;;13.80;99.90;;;;;;5072039;28;20197;-78
2022/08/28 05:03:34;;;;;;;2.27;1.50;;;13.80;99.90;;;;;;5071633;28;20205;-78
2022/08/28 05:06:02;;;;;;;2.83;1.57;;;13.80;99.90;;;;;;5072190;28;20309;-77
2022/08/28 05:08:30;;;;;;;3.33;1.93;;;13.90;99.90;;;;;;5071606;28;20205;-79
2022/08/28 05:10:58;;;;;;;2.70;1.83;;;13.90;99.90;;;;;;5071021;28;20312;-78
2022/08/28 05:13:26;;;;;;;2.83;1.73;;;13.90;99.90;;;;;;5072021;28;20668;-78
2022/08/28 05:15:54;;;;;;;4.77;1.93;;;14.00;99.90;;;;;;5071803;28;20666;-78
2022/08/28 05:18:23;;;;;;;4.40;1.80;;;14.00;99.90;;;;;;5070486;28;20197;-78
2022/08/28 05:20:50;;;;;;;4.10;1.70;;;14.00;99.90;;;;;;5071742;28;20619;-77
2022/08/28 05:23:18;;;;;;;3.80;1.77;;;14.00;99.90;;;;;;5071931;28;20283;-78
2022/08/28 05:25:48;;;;;;;4.60;1.73;;;14.00;99.90;;;;;;5071145;28;20221;-78
2022/08/28 05:28:16;;;;;;;2.67;1.60;;;14.00;99.90;;;;;;5071422;28;20494;-78
2022/08/28 05:30:44;;;;;;;5.10;1.80;;;14.00;99.90;;;;;;5071521;28;20201;-78
2022/08/28 05:33:13;;;;;;;3.20;1.47;;;14.00;99.90;;;;;;5070943;28;20220;-78
2022/08/28 05:35:43;;;;;;;5.13;2.07;;;14.00;99.90;;;;;;5071585;28;20284;-78
2022/08/28 05:38:11;;;;;;;4.23;1.60;;;14.00;99.90;;;;;;5071266;28;20212;-77
2022/08/28 05:40:44;;;;;;;2.43;1.80;;;14.10;99.90;;;;;;5071039;28;20274;-78
2022/08/28 05:43:14;;;;;;;3.07;1.83;;;14.10;99.90;;;;;;5071778;28;20197;-79
2022/08/28 05:45:41;;;;;;;2.07;1.40;;;14.20;99.90;;;;;;5071276;28;20636;-78
2022/08/28 05:48:10;;;;;;;3.53;1.83;;;14.20;99.90;;;;;;5071305;28;20205;-78
2022/08/28 05:50:39;;;;;;;3.63;1.90;;;14.30;99.90;;;;;;5071289;28;20222;-79
2022/08/28 05:53:05;;;;;;;3.37;1.53;;;14.30;99.90;;;;;;5070891;28;20205;-79
2022/08/28 05:55:32;;;;;;;1.90;1.50;;;14.40;99.90;;;;;;5071423;28;20225;-79
2022/08/28 05:58:27;;;;;;;2.83;1.70;;;14.40;99.90;;;;;;5084895;28;20192;-79
2022/08/28 06:00:47;;;;;;;3.57;2.10;;;14.50;99.90;;;;;;5070693;28;20228;-77
2022/08/28 06:03:14;;;;;;;1.50;1.40;;;14.50;99.90;;;;;;5071055;28;20200;-78
2022/08/28 06:05:41;;;;;;;3.33;1.63;;;14.50;99.90;;;;;;5071714;28;20217;-78
2022/08/28 06:08:08;;;;;;;3.83;2.00;;;14.60;99.90;;;;;;5070925;28;20271;-78
2022/08/28 06:10:36;;;;;;;2.47;1.73;;;14.60;99.90;;;;;;5071771;28;20229;-78
2022/08/28 06:13:03;;;;;;;2.83;1.80;;;14.70;99.90;;;;;;5071332;28;20611;-78
2022/08/28 06:15:30;;;;;;;5.85;1.90;;;14.70;99.90;;;;;;5071200;28;20190;-77
2022/08/28 06:17:58;;;;;;;5.60;2.00;;;14.80;99.90;;;;;;5071558;28;20197;-79
2022/08/28 06:20:25;;;;;;;6.10;1.97;;;14.80;99.90;;;;;;5071935;28;20251;-76
2022/08/28 06:22:52;;;;;;;4.63;2.25;;;14.90;99.90;;;;;;5071864;28;20202;-80
2022/08/28 06:25:19;;;;;;;3.73;1.80;;;14.90;99.90;;;;;;5071540;28;20306;-78
2022/08/28 06:27:45;;;;;;;3.20;1.67;;;15.00;99.90;;;;;;5071479;28;20181;-77
2022/08/28 06:30:13;;;;;;;1.97;1.70;;;15.00;99.90;;;;;;5071603;28;20313;-79
2022/08/28 06:32:39;;;;;;;5.07;2.27;;;15.10;99.90;;;;;;5081525;28;20239;-77
2022/08/28 06:35:08;;;;;;;6.32;2.78;;;15.10;99.90;;;;;;5072744;28;20294;-78
2022/08/28 06:37:35;;;;;;;2.73;1.67;;;15.20;99.90;;;;;;5090744;28;20231;-78
2022/08/28 06:40:03;;;;;;;4.68;1.90;;;15.30;99.90;;;;;;5087959;28;20300;-79
2022/08/28 06:42:30;;;;;;;3.75;2.00;;;15.40;99.90;;;;;;5072009;28;20248;-79
2022/08/28 06:44:57;;;;;;;6.07;2.03;;;15.40;99.90;;;;;;5075140;28;20195;-79
2022/08/28 06:47:24;;;;;;;5.17;2.30;;;15.40;99.90;;;;;;5073962;28;20312;-79
2022/08/28 06:49:51;;;;;;;5.33;2.20;;;15.50;99.90;;;;;;5074100;28;20277;-78
2022/08/28 06:52:19;;;;;;;3.10;1.80;;;15.50;99.90;;;;;;5073960;28;20201;-79
2022/08/28 06:54:46;;;;;;;6.00;1.95;;;15.60;99.90;;;;;;5074991;28;20195;-79
2022/08/28 06:57:13;;;;;;;6.80;2.10;;;15.70;99.90;;;;;;5089716;28;20201;-79
2022/08/28 06:59:40;;;;;;;3.28;1.83;;;15.70;99.90;;;;;;5092323;28;20196;-80
2022/08/28 07:02:08;;;;;;;7.30;2.22;;;15.80;99.90;;;;;;5093872;28;20279;-79
2022/08/28 07:04:35;;;;;;;4.82;2.00;;;15.90;99.90;;;;;;5086999;28;20241;-79
2022/08/28 07:07:02;;;;;;;4.80;2.03;;;16.00;99.90;;;;;;5093912;28;20220;-79
2022/08/28 07:09:30;;;;;;;5.50;2.25;;;16.10;99.90;;;;;;5093619;28;20233;-80
2022/08/28 07:11:57;;;;;;;4.93;1.80;;;16.20;99.90;;;;;;5084943;28;20508;-78
2022/08/28 07:14:24;;;;;;;5.90;2.00;;;16.30;99.90;;;;;;5074657;28;20551;-77
2022/08/28 07:16:51;;;;;;;4.88;1.80;;;16.40;99.90;;;;;;5074273;28;20189;-79
2022/08/28 07:19:18;;;;;;;6.57;2.50;;;16.50;99.90;;;;;;5073427;28;20208;-78
2022/08/28 07:21:46;;;;;;;3.72;1.60;;;16.80;99.90;;;;;;5074441;28;20228;-79
2022/08/28 07:24:15;;;;;;;2.97;1.67;;;17.00;99.90;;;;;;5073211;28;20205;-78
2022/08/28 07:26:44;;;;;;;4.88;1.95;;;17.30;99.90;;;;;;5073919;28;20482;-77
2022/08/28 07:29:13;;;;;;;5.10;1.60;;;17.60;99.90;;;;;;5073893;28;20213;-79
2022/08/28 07:31:42;;;;;;;4.88;1.88;;;17.80;99.90;;;;;;5072882;28;20197;-80
2022/08/28 07:34:10;;;;;;;4.75;1.73;;;18.10;99.90;;;;;;5073044;28;20197;-78
2022/08/28 07:36:37;;;;;;;5.15;2.05;;;18.30;41.20;;;;;;5091119;28;20201;-80
2022/08/28 07:39:05;;;;;;;5.00;1.92;;;18.50;11.20;;;;;;5093099;28;20208;-78
2022/08/28 07:41:34;;;;;;;6.40;1.80;;;18.70;1.00;;;;;;5081543;28;20205;-79
2022/08/28 07:46:47;;;;;;;2.42;1.48;;;18.90;1.00;;;;;;5072628;28;20212;-78
2022/08/28 07:49:15;;;;;;;2.63;1.60;;;19.00;1.00;;;;;;5073253;28;20589;-79
2022/08/28 07:51:43;;;;;;;7.43;1.90;;;19.20;1.00;;;;;;5072981;28;20201;-78
2022/08/28 07:54:10;;;;;;;2.78;1.85;;;19.30;1.00;;;;;;5072826;28;20197;-80
2022/08/28 07:56:39;;;;;;;4.65;1.40;;;19.50;1.00;;;;;;5073465;28;20217;-78
2022/08/28 07:59:09;;;;;;;4.55;1.95;;;19.60;1.00;;;;;;5073796;28;20305;-78
2022/08/28 08:01:38;;;;;;;4.93;1.65;;;19.60;1.00;;;;;;5071984;28;20189;-78
2022/08/28 08:04:06;;;;;;;6.97;1.65;;;19.70;1.00;;;;;;5072802;28;20194;-80
2022/08/28 08:06:33;;;;;;;2.85;1.45;;;19.70;99.90;;;;;;5072549;28;20302;-79
2022/08/28 08:09:00;;;;;;;4.35;1.75;;;19.80;1.00;;;;;;5073183;28;20229;-79
2022/08/28 08:11:27;;;;;;;6.32;1.92;;;19.90;1.00;;;;;;5072811;28;20201;-79
2022/08/28 08:13:55;;;;;;;3.17;1.52;;;20.10;1.00;;;;;;5072800;28;20204;-79
2022/08/28 08:16:25;;;;;;;2.83;1.50;;;20.30;1.00;;;;;;5072801;28;20538;-78
2022/08/28 08:18:52;;;;;;;6.97;2.22;;;20.50;1.00;;;;;;5073012;28;20196;-79
2022/08/28 08:21:21;;;;;;;3.70;1.60;;;20.80;99.90;;;;;;5071866;28;20477;-78
2022/08/28 08:23:48;;;;;;;3.03;1.58;;;21.00;99.90;;;;;;5073550;28;20204;-79
2022/08/28 08:26:17;;;;;;;3.00;1.40;;;21.20;1.00;;;;;;5072853;28;20198;-79
2022/08/28 08:28:45;;;;;;;2.75;1.60;;;21.10;1.00;;;;;;5071162;28;20197;-81
2022/08/28 08:31:14;;;;;;;3.97;1.45;;;21.20;1.00;;;;;;5072178;28;20203;-78
2022/08/28 08:33:44;;;;;;;5.28;1.67;;;21.40;99.90;;;;;;5072199;28;20278;-79
2022/08/28 08:36:13;;;;;;;4.25;1.50;;;21.60;99.90;;;;;;5071829;28;20280;-78
2022/08/28 08:38:41;;;;;;;4.40;1.52;;;21.90;1.00;;;;;;5075169;28;20208;-77
2022/08/28 08:41:17;;;;;;;4.00;1.60;;;22.10;1.00;;;;;;5071534;28;20504;-78
2022/08/28 08:43:53;;;;;;;4.25;1.50;;;22.50;1.00;;;;;;5071016;28;20203;-78
2022/08/28 08:46:26;;;;;;;3.75;1.67;;;22.70;1.00;;;;;;5072181;28;20300;-78
2022/08/28 08:48:56;;;;;;;3.95;1.20;;;22.80;1.00;;;;;;5071214;28;20212;-80
2022/08/28 08:51:37;;;;;;;1.95;1.35;;;22.80;1.00;;;;;;5072192;28;20205;-79
2022/08/28 08:54:08;;;;;;;3.90;1.35;;;23.10;1.00;;;;;;5072127;28;20196;-78
2022/08/28 08:56:35;;;;;;;4.20;1.38;;;23.20;1.00;;;;;;5070950;28;20285;-79
2022/08/28 08:59:04;;;;;;;1.77;1.17;;;23.00;1.00;;;;;;5071756;28;20206;-79
2022/08/28 09:01:37;;;;;;;4.43;1.73;;;23.00;1.00;;;;;;5072412;28;20203;-79
2022/08/28 09:04:16;;;;;;;4.63;1.77;;;22.90;1.00;;;;;;5076358;28;20200;-78
2022/08/28 09:06:48;;;;;;;3.22;1.42;;;23.00;1.00;;;;;;5092113;28;20234;-78
2022/08/28 09:09:20;;;;;;;3.70;1.30;;;23.20;1.00;;;;;;5085293;28;20243;-79
2022/08/28 09:11:53;;;;;;;2.67;1.40;;;23.20;1.00;;;;;;5070465;28;20201;-79
2022/08/28 09:14:27;;;;;;;2.08;1.15;;;23.20;1.00;;;;;;5071360;28;20224;-77
2022/08/28 09:16:56;;;;;;;4.85;1.33;;;23.10;99.90;;;;;;5071753;28;20198;-77
2022/08/28 09:19:24;;;;;;;3.58;1.60;;;23.10;99.90;;;;;;5071294;28;20288;-79
2022/08/28 09:21:52;;;;;;;3.05;1.20;;;22.90;99.90;;;;;;5071904;28;20201;-78
2022/08/28 09:24:22;;;;;;;3.75;1.20;;;23.10;99.90;;;;;;5078935;28;20208;-79
2022/08/28 09:26:58;;;;;;;4.80;1.90;;;23.20;99.90;;;;;;5091936;28;20521;-76
2022/08/28 09:29:30;;;;;;;3.58;1.70;;;23.40;99.90;;;;;;5091601;28;20621;-78
2022/08/28 09:31:57;;;;;;;5.05;1.42;;;23.50;99.90;;;;;;5091523;28;20220;-79
2022/08/28 09:34:33;;;;;;;4.90;1.42;;;23.80;99.90;;;;;;5071871;28;20208;-76
2022/08/28 09:37:00;;;;;;;4.78;1.80;;;23.80;99.90;;;;;;5072017;28;20193;-79
2022/08/28 09:39:30;;;;;;;4.05;1.10;;;23.90;99.90;;;;;;5017370;28;20344;-78
2022/08/28 09:44:55;;;;;;;3.92;1.58;;;24.10;99.90;;;;;;4998712;28;20389;-76
2022/08/28 09:47:38;;;;;;;2.58;1.40;;;24.10;99.90;;;;;;5072610;28;21146;-78
2022/08/28 09:50:31;;;;;;;2.45;1.23;;;24.10;99.90;;;;;;5086757;28;20205;-79
2022/08/28 09:53:12;;;;;;;3.55;1.55;;;24.10;99.90;;;;;;5070845;28;20204;-78
2022/08/28 09:55:48;;;;;;;3.88;1.17;;;24.00;99.90;;;;;;5072244;28;20516;-79
2022/08/28 09:58:15;;;;;;;4.00;1.23;;;23.80;99.90;;;;;;5085716;28;20193;-79
2022/08/28 10:00:50;;;;;;;2.67;1.50;;;23.40;99.90;;;;;;5091141;28;20228;-80
2022/08/28 10:03:23;;;;;;;4.22;1.63;;;23.20;99.90;;;;;;5097044;28;20278;-78
2022/08/28 10:06:03;;;;;;;3.20;1.23;;;23.20;99.90;;;;;;5079107;28;20205;-79
2022/08/28 10:08:46;;;;;;;2.72;1.10;;;23.00;99.90;;;;;;5071111;28;20550;-80
2022/08/28 10:11:20;;;;;;;2.67;1.52;;;22.90;99.90;;;;;;5071132;28;20189;-79
2022/08/28 10:13:53;;;;;;;4.03;1.45;;;22.80;99.90;;;;;;5070673;28;20196;-79
2022/08/28 10:16:33;;;;;;;2.45;1.20;;;22.90;99.90;;;;;;5072391;28;20196;-81
2022/08/28 10:19:05;;;;;;;3.75;1.30;;;23.20;99.90;;;;;;5075502;28;20223;-81
2022/08/28 10:21:45;;;;;;;2.17;1.10;;;23.50;99.90;;;;;;5074868;28;20805;-78
2022/08/28 10:24:27;;;;;;;4.25;1.10;;;23.80;99.90;;;;;;5075278;28;20281;-79
2022/08/28 10:27:06;;;;;;;3.45;1.40;;;23.70;99.90;;;;;;5074834;28;20236;-79
2022/08/28 10:29:47;;;;;;;2.17;1.20;;;23.50;99.90;;;;;;5074966;28;20269;-81
2022/08/28 10:32:32;;;;;;;3.65;1.48;;;23.50;99.90;;;;;;5072821;28;20244;-80
2022/08/28 10:35:07;;;;;;;3.88;1.30;;;23.50;99.90;;;;;;5074901;28;20193;-79
2022/08/28 10:37:48;;;;;;;3.85;1.20;;;23.50;99.90;;;;;;5088366;28;20192;-80
2022/08/28 10:40:18;;;;;;;3.80;1.30;;;23.60;99.90;;;;;;5078941;28;20589;-79
2022/08/28 10:42:50;;;;;;;2.80;1.30;;;23.80;99.90;;;;;;5074490;28;20193;-78
2022/08/28 10:45:22;;;;;;;3.03;1.25;;;24.10;99.90;;;;;;5075026;28;20217;-79
2022/08/28 10:47:52;;;;;;;4.07;1.45;;;24.50;99.90;;;;;;5074360;28;20216;-81
2022/08/28 10:50:25;;;;;;;4.10;1.10;;;24.50;99.90;;;;;;5074604;28;20189;-80
2022/08/28 10:52:59;;;;;;;3.50;1.33;;;24.40;99.90;;;;;;5075291;28;20304;-79
2022/08/28 10:55:33;;;;;;;3.00;1.45;;;24.10;99.90;;;;;;5075127;28;20197;-79
2022/08/28 10:58:04;;;;;;;3.25;1.30;;;23.40;99.90;;;;;;5078732;28;20743;-78
2022/08/28 11:00:31;;;;;;;5.03;1.80;;;23.00;99.90;;;;;;5094556;28;20200;-79
2022/08/28 11:03:02;;;;;;;2.30;1.20;;;22.90;99.90;;;;;;5080416;28;20205;-77
2022/08/28 11:05:32;;;;;;;2.63;1.20;;;23.20;99.90;;;;;;5072898;28;20185;-77
2022/08/28 11:08:06;;;;;;;2.75;1.08;;;23.30;99.90;;;;;;5074449;28;20244;-80
2022/08/28 11:10:49;;;;;;;2.83;1.30;;;23.40;99.90;;;;;;5073645;28;20233;-79
2022/08/28 11:13:45;;;;;;;3.63;1.30;;;23.30;99.90;;;;;;5079969;28;20200;-80
2022/08/28 11:16:19;;;;;;;2.92;1.40;;;23.20;99.90;;;;;;5093733;28;20196;-78
2022/08/28 11:19:18;;;;;;;2.47;1.30;;;22.90;99.90;;;;;;5090884;28;20624;-78
2022/08/28 11:21:50;;;;;;;2.17;1.30;;;22.60;99.90;;;;;;5089401;28;20203;-78
2022/08/28 11:24:39;;;;;;;3.38;1.33;;;22.30;99.90;;;;;;5088397;28;20207;-78
2022/08/28 11:27:20;;;;;;;4.68;1.42;;;22.50;99.90;;;;;;5089691;28;20519;-78
2022/08/28 11:30:31;;;;;;;4.15;1.30;;;22.80;99.90;;;;;;5092816;28;20267;-79
2022/08/28 11:33:07;;;;;;;2.45;1.15;;;23.30;99.90;;;;;;5093147;28;20212;-79
2022/08/28 11:35:52;;;;;;;1.85;1.45;;;23.80;99.90;;;;;;5091594;28;20242;-80
2022/08/28 11:38:56;;;;;;;2.90;1.45;;;24.10;99.90;;;;;;5092773;28;20196;-79
2022/08/28 11:41:29;;;;;;;4.13;1.33;;;24.30;99.90;;;;;;5073567;28;20208;-79
2022/08/28 11:44:25;;;;;;;1.98;0.95;;;24.00;99.90;;;;;;5093031;28;20184;-78
2022/08/28 11:46:55;;;;;;;2.63;1.25;;;23.80;99.90;;;;;;5044600;28;20200;-79
2022/08/28 11:49:39;;;;;;;4.03;1.35;;;23.40;99.90;;;;;;5093109;28;20258;-79
2022/08/28 11:52:16;;;;;;;3.47;1.23;;;23.20;99.90;;;;;;5090927;28;20207;-80
2022/08/28 11:54:51;;;;;;;3.03;1.40;;;23.40;99.90;;;;;;5080369;28;20201;-79
2022/08/28 11:57:24;;;;;;;2.60;1.33;;;23.70;99.90;;;;;;5073421;28;20200;-82
2022/08/28 12:00:10;;;;;;;3.45;1.30;;;24.00;99.90;;;;;;5072688;28;20208;-79
2022/08/28 12:02:47;;;;;;;2.72;1.23;;;24.50;99.90;;;;;;5073176;28;20211;-78
2022/08/28 12:05:45;;;;;;;3.85;1.35;;;24.80;99.90;;;;;;5072770;28;20197;-79
2022/08/28 12:08:13;;;;;;;2.83;1.20;;;24.70;99.90;;;;;;5072948;28;20213;-81
2022/08/28 12:10:58;;;;;;;3.28;1.20;;;24.40;99.90;;;;;;5072860;28;20702;-78
2022/08/28 12:13:51;;;;;;;3.88;1.20;;;23.90;99.90;;;;;;5071920;28;20288;-78
2022/08/28 12:16:18;;;;;;;2.47;1.20;;;23.50;99.90;;;;;;5057936;28;20270;-79
2022/08/28 12:19:04;;;;;;;1.48;1.27;;;23.00;99.90;;;;;;5072662;28;20222;-77
2022/08/28 12:21:37;;;;;;;2.22;1.10;;;23.00;99.90;;;;;;5072276;28;20528;-79
2022/08/28 12:24:12;;;;;;;1.58;1.30;;;23.20;99.90;;;;;;5072399;28;20842;-79
2022/08/28 12:26:44;;;;;;;2.38;1.27;;;23.60;99.90;;;;;;5071407;28;20272;-79
2022/08/28 12:29:28;;;;;;;2.92;1.50;;;24.10;99.90;;;;;;5072809;28;20225;-81
2022/08/28 12:32:24;;;;;;;2.83;1.00;;;24.40;99.90;;;;;;5072902;28;20220;-80
2022/08/28 12:35:23;;;;;;;2.42;1.30;;;24.30;99.90;;;;;;5071788;28;20826;-80
2022/08/28 12:38:01;;;;;;;3.05;1.35;;;23.90;99.90;;;;;;5010271;28;20858;-79
2022/08/28 12:40:49;;;;;;;1.58;0.88;;;23.70;99.90;;;;;;5062872;28;20208;-80
2022/08/28 12:43:26;;;;;;;2.63;1.20;;;23.40;99.90;;;;;;5071873;28;20212;-80
2022/08/28 12:46:00;;;;;;;2.50;1.38;;;23.10;99.90;;;;;;5072491;28;20199;-79
2022/08/28 12:48:30;;;;;;;1.48;1.10;;;22.80;99.90;;;;;;5071372;28;20529;-80
2022/08/28 12:51:00;;;;;;;3.00;1.25;;;22.70;99.90;;;;;;5071724;28;20201;-79
2022/08/28 12:53:27;;;;;;;2.90;1.60;;;22.60;99.90;;;;;;5072142;28;20614;-78
2022/08/28 12:55:54;;;;;;;2.75;1.30;;;22.40;99.90;;;;;;5071241;28;20227;-78
2022/08/28 12:58:30;;;;;;;3.78;1.33;;;22.40;99.90;;;;;;5072091;28;20200;-79
2022/08/28 13:01:00;;;;;;;6.10;1.60;;;22.30;99.90;;;;;;5081056;28;20255;-81
2022/08/28 13:03:28;;;;;;;2.90;1.23;;;22.50;99.90;;;;;;5071387;28;20520;-80
2022/08/28 13:06:03;;;;;;;1.92;1.33;;;22.80;99.90;;;;;;5070939;28;20243;-79
2022/08/28 13:08:31;;;;;;;5.88;1.73;;;23.20;99.90;;;;;;5071912;28;20671;-79
2022/08/28 13:10:58;;;;;;;3.00;1.63;;;23.60;99.90;;;;;;5091543;28;20312;-79
2022/08/28 13:13:36;;;;;;;4.70;1.55;;;23.90;99.90;;;;;;5094123;28;20200;-80
2022/08/28 13:16:06;;;;;;;4.53;1.70;;;24.00;99.90;;;;;;5091927;28;20193;-80